LEMH/MAH METAR and TAF weather

Enter ICAO airport designator
Station Type Date Time Source
LEMH METAR 2021/09/25 12:00 UTC NOAA

LEMH 251200Z 11011KT 9999 SCT011 26/23 Q1017


Station Type Date Time Source
LEMH Decoded METAR 2021/09/25 12:00 UTC NOAA

Menorca / Mahon, Spain (LEMH) 39-52N 004-14E 82M
Sep 25, 2021 - 08:00 AM EDT / 2021.09.25 1200 UTC
Wind: from the ESE (110 degrees) at 13 MPH (11 KT):0
Visibility: greater than 7 mile(s):0
Sky conditions: partly cloudy
Temperature: 78 F (26 C)
Dew Point: 73 F (23 C)
Relative Humidity: 83%
Pressure (altimeter): 30.03 in. Hg (1017 hPa)
ob: LEMH 251200Z 11011KT 9999 SCT011 26/23 Q1017
cycle: 12

Station Type Date Time Source
LEMH TAF 2021/09/25 09:27 UTC NOAA

TAF LEMH 250800Z 2509/2609 VRB03KT 9999 SCT007 TX28/2512Z TN19/2605Z
BECMG 2509/2511 15010KT
TEMPO 2517/2604 27010KT TS SHRA FEW050CB
BECMG 2602/2604 VRB03KT

Example: see airport list